Time,TemperatureF,DewpointF,PressureIn,WindDirection,WindDirectionDegrees,WindSpeedMPH,WindSpeedGustMPH,Humidity,HourlyPrecipIn,Conditions,Clouds,dailyrainin,SoftwareType,DateUTC
2013-04-21 00:02:00,22.0,19.0,30.41,ENE,78,0.0,0.0,89,0.00,,,0.73,,2013-04-21 05:02:00,
2013-04-21 00:12:00,22.0,19.0,30.41,ENE,78,0.0,0.0,89,0.00,,,0.73,,2013-04-21 05:12:00,
2013-04-21 00:22:00,21.0,18.0,30.40,ENE,78,0.0,0.0,89,0.00,,,0.73,,2013-04-21 05:22:00,
2013-04-21 00:32:00,21.0,19.0,30.40,ENE,78,0.0,0.0,90,0.00,,,0.73,,2013-04-21 05:32:00,
2013-04-21 00:42:00,21.0,19.0,30.40,ENE,78,0.0,0.0,90,0.00,,,0.73,,2013-04-21 05:42:00,
2013-04-21 00:52:00,21.0,19.0,30.40,ENE,78,0.0,0.0,90,0.00,,,0.73,,2013-04-21 05:52:00,
2013-04-21 01:01:00,21.0,19.0,30.41,ENE,78,0.0,0.0,90,0.00,,,0.73,,2013-04-21 06:01:00,
2013-04-21 01:12:00,21.0,19.0,30.41,ENE,78,0.0,0.0,90,0.00,,,0.73,,2013-04-21 06:12:00,
2013-04-21 01:22:00,22.0,20.0,30.41,ENE,78,0.0,0.0,90,0.00,,,0.73,,2013-04-21 06:22:00,
2013-04-21 01:32:00,22.0,20.0,30.41,ENE,78,0.0,1.0,90,0.00,,,0.73,,2013-04-21 06:32:00,
2013-04-21 01:42:00,22.0,20.0,30.41,ENE,78,0.0,1.0,90,0.00,,,0.73,,2013-04-21 06:42:00,
2013-04-21 01:51:00,22.0,20.0,30.42,ENE,78,0.0,0.0,90,0.00,,,0.73,,2013-04-21 06:51:00,
2013-04-21 02:01:00,22.0,19.0,30.41,ENE,78,0.0,0.0,89,0.00,,,0.73,,2013-04-21 07:01:00,
2013-04-21 02:12:00,21.0,19.0,30.42,ENE,78,0.0,0.0,90,0.00,,,0.73,,2013-04-21 07:12:00,
2013-04-21 02:21:00,21.0,19.0,30.42,ENE,78,0.0,0.0,90,0.00,,,0.73,,2013-04-21 07:21:00,
2013-04-21 02:32:00,21.0,19.0,30.42,ENE,78,0.0,0.0,90,0.00,,,0.73,,2013-04-21 07:32:00,
2013-04-21 02:42:00,21.0,19.0,30.42,ENE,78,0.0,0.0,90,0.00,,,0.73,,2013-04-21 07:42:00,
2013-04-21 02:52:00,21.0,19.0,30.42,ENE,78,0.0,0.0,90,0.00,,,0.73,,2013-04-21 07:52:00,
2013-04-21 03:01:00,20.0,18.0,30.41,ENE,78,0.0,0.0,90,0.00,,,0.73,,2013-04-21 08:01:00,
2013-04-21 03:12:00,20.0,18.0,30.41,ENE,78,0.0,0.0,90,0.00,,,0.73,,2013-04-21 08:12:00,
2013-04-21 03:21:00,20.0,18.0,30.41,ENE,78,0.0,0.0,90,0.00,,,0.73,,2013-04-21 08:21:00,
2013-04-21 03:32:00,20.0,18.0,30.41,ENE,78,0.0,0.0,90,0.00,,,0.73,,2013-04-21 08:32:00,
2013-04-21 03:41:00,20.0,18.0,30.41,ENE,78,0.0,0.0,90,0.00,,,0.73,,2013-04-21 08:41:00,
2013-04-21 03:52:00,20.0,18.0,30.41,ENE,78,0.0,0.0,90,0.00,,,0.73,,2013-04-21 08:52:00,
2013-04-21 04:01:00,19.0,17.0,30.41,ENE,78,0.0,0.0,91,0.00,,,0.73,,2013-04-21 09:01:00,
2013-04-21 04:12:00,19.0,17.0,30.41,ENE,78,0.0,0.0,91,0.00,,,0.73,,2013-04-21 09:12:00,
2013-04-21 04:21:00,19.0,17.0,30.40,ENE,78,0.0,0.0,91,0.00,,,0.73,,2013-04-21 09:21:00,
2013-04-21 04:32:00,19.0,17.0,30.40,ENE,78,0.0,0.0,91,0.00,,,0.73,,2013-04-21 09:32:00,
2013-04-21 04:43:00,19.0,17.0,30.40,ENE,78,0.0,0.0,91,0.00,,,0.73,,2013-04-21 09:43:00,
2013-04-21 04:52:00,18.0,16.0,30.40,ENE,78,0.0,0.0,91,0.00,,,0.73,,2013-04-21 09:52:00,
2013-04-21 05:02:00,18.0,16.0,30.40,ENE,78,0.0,1.0,91,0.00,,,0.73,,2013-04-21 10:02:00,
2013-04-21 05:12:00,18.0,16.0,30.40,ENE,78,0.0,1.0,91,0.00,,,0.73,,2013-04-21 10:12:00,
2013-04-21 05:22:00,18.0,16.0,30.40,ENE,78,0.0,0.0,91,0.00,,,0.73,,2013-04-21 10:22:00,
2013-04-21 05:32:00,18.0,16.0,30.40,ENE,78,0.0,0.0,91,0.00,,,0.73,,2013-04-21 10:32:00,
2013-04-21 05:42:00,18.0,16.0,30.40,ENE,78,0.0,0.0,91,0.00,,,0.73,,2013-04-21 10:42:00,
2013-04-21 05:52:00,18.0,16.0,30.40,ENE,78,0.0,0.0,91,0.00,,,0.73,,2013-04-21 10:52:00,
2013-04-21 06:02:00,18.0,16.0,30.40,ENE,78,0.0,1.0,92,0.00,,,0.73,,2013-04-21 11:02:00,
2013-04-21 06:12:00,18.0,16.0,30.40,ENE,78,0.0,1.0,92,0.00,,,0.73,,2013-04-21 11:12:00,
2013-04-21 06:22:00,18.0,16.0,30.40,ENE,78,0.0,0.0,91,0.00,,,0.73,,2013-04-21 11:22:00,
2013-04-21 06:34:00,19.0,17.0,30.40,ENE,78,0.0,2.0,91,0.00,,,0.73,,2013-04-21 11:34:00,
2013-04-21 06:42:00,19.0,17.0,30.40,ENE,78,0.0,2.0,91,0.00,,,0.73,,2013-04-21 11:42:00,
2013-04-21 06:52:00,19.0,17.0,30.40,ENE,78,0.0,0.0,91,0.00,,,0.73,,2013-04-21 11:52:00,
2013-04-21 07:02:00,19.0,17.0,30.40,ENE,78,0.0,0.0,91,0.00,,,0.73,,2013-04-21 12:02:00,
2013-04-21 07:12:00,19.0,17.0,30.40,ENE,78,0.0,0.0,91,0.00,,,0.73,,2013-04-21 12:12:00,
2013-04-21 07:22:00,21.0,19.0,30.41,ENE,78,0.0,0.0,90,0.00,,,0.73,,2013-04-21 12:22:00,
2013-04-21 07:32:00,22.0,19.0,30.40,ENE,78,0.0,0.0,88,0.00,,,0.73,,2013-04-21 12:32:00,
2013-04-21 07:42:00,22.0,19.0,30.40,ENE,78,0.0,0.0,88,0.00,,,0.73,,2013-04-21 12:42:00,
2013-04-21 07:52:00,23.0,20.0,30.41,ENE,78,0.0,1.0,87,0.00,,,0.73,,2013-04-21 12:52:00,
2013-04-21 08:01:00,24.0,20.0,30.40,ENE,78,0.0,0.0,84,0.00,,,0.73,,2013-04-21 13:01:00,
2013-04-21 08:11:00,24.0,20.0,30.40,ENE,78,0.0,0.0,84,0.00,,,0.73,,2013-04-21 13:11:00,
2013-04-21 08:21:00,25.0,21.0,30.40,ENE,78,0.0,0.0,83,0.00,,,0.73,,2013-04-21 13:21:00,
2013-04-21 08:32:00,27.0,22.0,30.40,ENE,78,0.0,1.0,80,0.00,,,0.73,,2013-04-21 13:32:00,
2013-04-21 08:42:00,27.0,22.0,30.40,ENE,78,0.0,1.0,80,0.00,,,0.73,,2013-04-21 13:42:00,
2013-04-21 08:52:00,29.0,23.0,30.40,SW,236,0.0,2.0,77,0.00,,,0.73,,2013-04-21 13:52:00,
2013-04-21 09:02:00,31.0,25.0,30.39,SW,236,0.0,1.0,77,0.00,,,0.73,,2013-04-21 14:02:00,
2013-04-21 09:11:00,31.0,25.0,30.39,SW,236,0.0,1.0,77,0.00,,,0.73,,2013-04-21 14:11:00,
2013-04-21 09:21:00,33.0,26.0,30.38,SSE,159,2.0,5.0,76,0.00,,,0.73,,2013-04-21 14:21:00,
2013-04-21 09:32:00,31.0,25.0,30.38,SW,236,0.0,3.0,79,0.00,,,0.72,,2013-04-21 14:32:00,
2013-04-21 09:42:00,31.0,25.0,30.38,SW,236,0.0,3.0,79,0.00,,,0.72,,2013-04-21 14:42:00,
2013-04-21 09:52:00,33.0,28.0,30.37,South,178,3.0,8.0,83,0.01,,,0.73,,2013-04-21 14:52:00,
2013-04-21 10:02:00,37.0,31.0,30.37,SSE,160,4.0,9.0,78,0.01,,,0.73,,2013-04-21 15:02:00,
2013-04-21 10:11:00,37.0,31.0,30.37,SSE,160,4.0,9.0,78,0.01,,,0.73,,2013-04-21 15:11:00,
2013-04-21 10:22:00,37.0,31.0,30.36,SSE,158,1.0,10.0,79,0.01,,,0.73,,2013-04-21 15:22:00,
2013-04-21 10:33:00,38.0,32.0,30.36,SW,216,1.0,5.0,79,0.01,,,0.73,,2013-04-21 15:33:00,
2013-04-21 10:42:00,38.0,32.0,30.36,SW,216,1.0,5.0,79,0.01,,,0.73,,2013-04-21 15:42:00,
2013-04-21 10:53:00,38.0,31.0,30.35,SW,223,5.0,9.0,77,0.01,,,0.74,,2013-04-21 15:53:00,
2013-04-21 11:03:00,39.0,32.0,30.35,SSE,151,4.0,9.0,77,0.02,,,0.75,,2013-04-21 16:03:00,
2013-04-21 11:12:00,39.0,32.0,30.35,SSE,151,4.0,9.0,77,0.02,,,0.75,,2013-04-21 16:12:00,
2013-04-21 11:22:00,40.0,33.0,30.34,SSW,210,6.0,13.0,76,0.03,,,0.76,,2013-04-21 16:22:00,
2013-04-21 11:33:00,40.0,33.0,30.33,South,175,4.0,17.0,76,0.04,,,0.76,,2013-04-21 16:33:00,
2013-04-21 11:42:00,40.0,33.0,30.33,South,175,4.0,17.0,76,0.04,,,0.76,,2013-04-21 16:42:00,
2013-04-21 11:52:00,41.0,34.0,30.32,South,173,7.0,16.0,75,0.04,,,0.77,,2013-04-21 16:52:00,
2013-04-21 12:02:00,41.0,33.0,30.31,SSW,193,7.0,15.0,74,0.04,,,0.78,,2013-04-21 17:02:00,
2013-04-21 12:12:00,41.0,33.0,30.31,SSW,193,7.0,15.0,74,0.04,,,0.78,,2013-04-21 17:12:00,
2013-04-21 12:23:00,42.0,34.0,30.30,SSW,205,4.0,19.0,74,0.04,,,0.79,,2013-04-21 17:23:00,
2013-04-21 12:32:00,42.0,34.0,30.30,SSW,196,6.0,15.0,74,0.04,,,0.74,,2013-04-21 17:32:00,
2013-04-21 12:42:00,42.0,34.0,30.30,SSW,196,6.0,15.0,74,0.04,,,0.74,,2013-04-21 17:42:00,
2013-04-21 12:52:00,41.0,33.0,30.29,SSE,159,6.0,14.0,73,0.04,,,0.75,,2013-04-21 17:52:00,
2013-04-21 13:02:00,41.0,34.0,30.28,SW,217,6.0,16.0,75,0.02,,,0.75,,2013-04-21 18:02:00,
2013-04-21 13:11:00,41.0,34.0,30.28,SW,217,6.0,16.0,75,0.02,,,0.75,,2013-04-21 18:11:00,
2013-04-21 13:22:00,40.0,33.0,30.27,South,169,6.0,16.0,76,0.03,,,0.76,,2013-04-21 18:22:00,
2013-04-21 13:32:00,40.0,33.0,30.26,SSE,157,8.0,15.0,76,0.02,,,0.69,,2013-04-21 18:32:00,
2013-04-21 13:42:00,40.0,33.0,30.26,SSE,157,8.0,15.0,76,0.02,,,0.69,,2013-04-21 18:42:00,
2013-04-21 13:52:00,40.0,33.0,30.25,South,184,5.0,10.0,76,0.01,,,0.69,,2013-04-21 18:52:00,
2013-04-21 14:02:00,40.0,33.0,30.24,SSE,161,6.0,17.0,75,0.01,,,0.69,,2013-04-21 19:02:00,
2013-04-21 14:12:00,40.0,33.0,30.24,SSE,161,6.0,17.0,75,0.01,,,0.69,,2013-04-21 19:12:00,
2013-04-21 14:21:00,40.0,33.0,30.24,SSW,199,4.0,12.0,75,0.00,,,0.69,,2013-04-21 19:21:00,
2013-04-21 14:32:00,40.0,33.0,30.23,SSE,147,5.0,18.0,75,0.01,,,0.60,,2013-04-21 19:32:00,
2013-04-21 14:42:00,40.0,33.0,30.23,SSE,147,5.0,18.0,75,0.01,,,0.60,,2013-04-21 19:42:00,
2013-04-21 14:52:00,41.0,33.0,30.22,SSE,167,5.0,13.0,74,0.01,,,0.60,,2013-04-21 19:52:00,
2013-04-21 15:02:00,41.0,33.0,30.21,South,173,6.0,14.0,73,0.01,,,0.60,,2013-04-21 20:02:00,
2013-04-21 15:11:00,41.0,33.0,30.21,South,173,6.0,14.0,73,0.01,,,0.60,,2013-04-21 20:11:00,
2013-04-21 15:22:00,42.0,34.0,30.20,South,174,6.0,13.0,73,0.01,,,0.60,,2013-04-21 20:22:00,
2013-04-21 15:32:00,42.0,34.0,30.19,SE,130,7.0,17.0,72,0.00,,,0.47,,2013-04-21 20:32:00,
2013-04-21 15:42:00,42.0,34.0,30.19,SE,130,7.0,17.0,72,0.00,,,0.47,,2013-04-21 20:42:00,
2013-04-21 15:52:00,42.0,34.0,30.19,South,176,5.0,16.0,72,0.00,,,0.47,,2013-04-21 20:52:00,
2013-04-21 16:02:00,42.0,34.0,30.18,SSE,165,5.0,11.0,72,0.00,,,0.47,,2013-04-21 21:02:00,
2013-04-21 16:12:00,42.0,34.0,30.18,SSE,165,5.0,11.0,72,0.00,,,0.47,,2013-04-21 21:12:00,
2013-04-21 16:21:00,42.0,34.0,30.18,SSE,154,5.0,13.0,72,0.00,,,0.47,,2013-04-21 21:21:00,
2013-04-21 16:33:00,41.0,33.0,30.17,South,184,8.0,19.0,72,0.00,,,0.33,,2013-04-21 21:33:00,
2013-04-21 16:43:00,41.0,33.0,30.17,South,184,8.0,19.0,72,0.00,,,0.33,,2013-04-21 21:43:00,
2013-04-21 16:53:00,41.0,33.0,30.16,South,171,5.0,14.0,73,0.00,,,0.33,,2013-04-21 21:53:00,
2013-04-21 17:02:00,41.0,33.0,30.16,SSE,155,5.0,18.0,73,0.00,,,0.33,,2013-04-21 22:02:00,
2013-04-21 17:12:00,41.0,33.0,30.16,SSE,155,5.0,18.0,73,0.00,,,0.33,,2013-04-21 22:12:00,
2013-04-21 17:22:00,41.0,33.0,30.16,South,181,4.0,12.0,74,0.00,,,0.33,,2013-04-21 22:22:00,
2013-04-21 17:33:00,41.0,33.0,30.16,South,188,4.0,11.0,74,0.00,,,0.22,,2013-04-21 22:33:00,
2013-04-21 17:43:00,41.0,33.0,30.16,South,188,4.0,11.0,74,0.00,,,0.22,,2013-04-21 22:43:00,
2013-04-21 17:52:00,41.0,33.0,30.15,SSE,158,4.0,11.0,74,0.00,,,0.22,,2013-04-21 22:52:00,
2013-04-21 18:02:00,41.0,33.0,30.15,South,187,4.0,11.0,73,0.00,,,0.22,,2013-04-21 23:02:00,
2013-04-21 18:12:00,41.0,33.0,30.15,South,187,4.0,11.0,73,0.00,,,0.22,,2013-04-21 23:12:00,
2013-04-21 18:22:00,41.0,33.0,30.15,South,171,4.0,12.0,73,0.00,,,0.22,,2013-04-21 23:22:00,
2013-04-21 18:32:00,41.0,33.0,30.14,SW,216,6.0,13.0,73,0.00,,,0.16,,2013-04-21 23:32:00,
2013-04-21 18:42:00,41.0,33.0,30.14,SW,216,6.0,13.0,73,0.00,,,0.16,,2013-04-21 23:42:00,
2013-04-21 18:52:00,41.0,33.0,30.13,SSW,202,4.0,10.0,73,0.00,,,0.16,,2013-04-21 23:52:00,
2013-04-21 19:01:00,41.0,33.0,30.12,South,177,3.0,7.0,74,0.00,,,0.16,,2013-04-22 00:01:00,
2013-04-21 19:11:00,41.0,33.0,30.12,South,177,3.0,7.0,74,0.00,,,0.16,,2013-04-22 00:11:00,
2013-04-21 19:21:00,41.0,34.0,30.11,SSW,192,4.0,14.0,76,0.00,,,0.16,,2013-04-22 00:21:00,
2013-04-21 19:32:00,40.0,34.0,30.11,South,188,3.0,8.0,79,0.00,,,0.12,,2013-04-22 00:32:00,
2013-04-21 19:42:00,40.0,34.0,30.11,South,188,3.0,8.0,79,0.00,,,0.12,,2013-04-22 00:42:00,
2013-04-21 19:51:00,40.0,35.0,30.10,South,178,5.0,12.0,81,0.01,,,0.13,,2013-04-22 00:51:00,
2013-04-21 20:01:00,39.0,35.0,30.10,South,183,2.0,8.0,84,0.02,,,0.14,,2013-04-22 01:01:00,
2013-04-21 20:12:00,39.0,35.0,30.10,South,183,2.0,8.0,84,0.02,,,0.14,,2013-04-22 01:12:00,
2013-04-21 20:21:00,39.0,35.0,30.11,SSW,194,5.0,10.0,86,0.04,,,0.16,,2013-04-22 01:21:00,
2013-04-21 20:32:00,38.0,34.0,30.11,SSE,168,2.0,11.0,87,0.05,,,0.17,,2013-04-22 01:32:00,
2013-04-21 20:41:00,38.0,34.0,30.11,SSE,168,2.0,11.0,87,0.05,,,0.17,,2013-04-22 01:41:00,
2013-04-21 20:52:00,38.0,35.0,30.11,SW,233,3.0,8.0,88,0.05,,,0.18,,2013-04-22 01:52:00,
2013-04-21 21:02:00,38.0,35.0,30.10,South,169,3.0,10.0,90,0.06,,,0.20,,2013-04-22 02:02:00,
2013-04-21 21:11:00,38.0,35.0,30.10,South,169,3.0,10.0,90,0.06,,,0.20,,2013-04-22 02:11:00,
2013-04-21 21:21:00,38.0,35.0,30.10,South,191,2.0,11.0,90,0.04,,,0.20,,2013-04-22 02:21:00,
2013-04-21 21:32:00,38.0,36.0,30.10,SSE,164,3.0,11.0,91,0.04,,,0.21,,2013-04-22 02:32:00,
2013-04-21 21:42:00,38.0,36.0,30.10,SSE,164,3.0,11.0,91,0.04,,,0.21,,2013-04-22 02:42:00,
2013-04-21 21:52:00,39.0,36.0,30.09,SSE,162,4.0,8.0,90,0.03,,,0.21,,2013-04-22 02:52:00,
2013-04-21 22:02:00,39.0,36.0,30.09,South,182,3.0,10.0,89,0.01,,,0.21,,2013-04-22 03:02:00,
2013-04-21 22:11:00,39.0,36.0,30.09,South,182,3.0,10.0,89,0.01,,,0.21,,2013-04-22 03:11:00,
2013-04-21 22:22:00,39.0,36.0,30.09,SE,138,3.0,7.0,88,0.01,,,0.21,,2013-04-22 03:22:00,
2013-04-21 22:33:00,40.0,37.0,30.10,South,175,5.0,12.0,88,0.00,,,0.21,,2013-04-22 03:33:00,
2013-04-21 22:42:00,40.0,37.0,30.10,South,175,5.0,12.0,88,0.00,,,0.21,,2013-04-22 03:42:00,
2013-04-21 22:52:00,40.0,37.0,30.09,South,172,3.0,8.0,88,0.00,,,0.21,,2013-04-22 03:52:00,
2013-04-21 23:03:00,40.0,36.0,30.09,SW,229,0.0,5.0,87,0.00,,,0.21,,2013-04-22 04:03:00,
2013-04-21 23:12:00,40.0,36.0,30.09,SW,229,0.0,5.0,87,0.00,,,0.21,,2013-04-22 04:12:00,
2013-04-21 23:23:00,40.0,37.0,30.09,SSW,192,1.0,5.0,88,0.00,,,0.21,,2013-04-22 04:23:00,
2013-04-21 23:33:00,41.0,37.0,30.09,West,267,1.0,7.0,87,0.00,,,0.21,,2013-04-22 04:33:00,
2013-04-21 23:43:00,41.0,37.0,30.09,West,267,1.0,7.0,87,0.00,,,0.21,,2013-04-22 04:43:00,
2013-04-21 23:52:00,41.0,38.0,30.10,SW,219,1.0,7.0,88,0.00,,,0.21,,2013-04-22 04:52:00,